Time;durP1;ratioP1;P1;durP2;ratioP2;P2;SDS_P1;SDS_P2;PMS_P1;PMS_P2;Temp;Humidity;BMP_temperature;BMP_pressure;BME280_temperature;BME280_humidity;BME280_pressure;Samples;Min_cycle;Max_cycle;Signal;HPM_P1;HPM_P2
2023/04/27 00:06:33;;;;;;;13.70;8.68;;;2.50;99.90;;;;;;25969230;22;20062;-50
2023/04/27 00:16:34;;;;;;;15.07;9.02;;;2.50;99.90;;;;;;25968199;22;20004;-48
2023/04/27 00:26:36;;;;;;;15.77;9.13;;;2.40;99.90;;;;;;25968218;22;20004;-51
2023/04/27 00:36:37;;;;;;;14.48;8.70;;;2.40;99.90;;;;;;25967632;22;20061;-51
2023/04/27 00:46:39;;;;;;;17.73;8.55;;;2.40;99.90;;;;;;25982292;22;20008;-51
2023/04/27 00:56:41;;;;;;;16.00;8.85;;;2.40;99.90;;;;;;25966578;22;20007;-51
2023/04/27 01:06:43;;;;;;;13.57;8.30;;;2.40;99.90;;;;;;25966233;22;20011;-59
2023/04/27 01:16:45;;;;;;;12.15;7.10;;;2.40;99.90;;;;;;25939237;22;20319;-51
2023/04/27 01:26:46;;;;;;;15.38;8.35;;;2.30;99.90;;;;;;25939257;22;20347;-49
2023/04/27 01:36:48;;;;;;;15.93;8.57;;;2.20;99.90;;;;;;25965150;22;20521;-50
2023/04/27 01:46:50;;;;;;;14.38;7.95;;;2.10;99.90;;;;;;25938416;22;19999;-48
2023/04/27 01:56:51;;;;;;;14.38;7.82;;;2.20;99.90;;;;;;25965038;22;20000;-50
2023/04/27 02:06:53;;;;;;;17.98;8.68;;;2.20;99.90;;;;;;25938008;22;20000;-50
2023/04/27 02:16:55;;;;;;;12.82;6.90;;;2.00;99.90;;;;;;25919995;22;20014;-49
2023/04/27 02:26:57;;;;;;;10.18;6.22;;;2.00;99.90;;;;;;25946187;22;20019;-49
2023/04/27 02:36:59;;;;;;;11.32;6.35;;;2.00;99.90;;;;;;25972544;22;20422;-49
2023/04/27 02:47:00;;;;;;;9.63;5.22;;;2.00;99.90;;;;;;25944977;22;20000;-51
2023/04/27 02:57:02;;;;;;;11.73;5.68;;;2.00;99.90;;;;;;25971888;22;20000;-51
2023/04/27 03:07:04;;;;;;;9.18;4.05;;;2.00;99.90;;;;;;25971542;22;20307;-51
2023/04/27 03:17:05;;;;;;;7.03;4.00;;;2.00;99.90;;;;;;25971091;22;20019;-51
2023/04/27 03:27:07;;;;;;;8.07;3.03;;;1.90;99.90;;;;;;25970064;22;20128;-53
2023/04/27 03:37:09;;;;;;;6.60;3.50;;;1.90;99.90;;;;;;25943147;22;20008;-52
2023/04/27 03:47:11;;;;;;;6.47;3.35;;;1.90;99.90;;;;;;25969557;22;20062;-51
2023/04/27 03:57:14;;;;;;;6.65;3.63;;;1.90;99.90;;;;;;25941046;22;19999;-51
2023/04/27 04:07:16;;;;;;;6.82;3.97;;;2.00;99.90;;;;;;25916932;22;20377;-51
2023/04/27 04:17:18;;;;;;;9.15;4.03;;;2.00;99.90;;;;;;25940520;22;20004;-49
2023/04/27 04:27:21;;;;;;;8.98;4.40;;;2.10;99.90;;;;;;25941148;22;20000;-50
2023/04/27 04:37:22;;;;;;;8.90;3.83;;;2.10;99.90;;;;;;25915213;22;20030;-50
2023/04/27 04:47:26;;;;;;;6.95;4.15;;;2.00;99.90;;;;;;25940105;22;20008;-52
2023/04/27 04:57:27;;;;;;;8.57;4.22;;;2.20;99.90;;;;;;25940115;22;20007;-49
2023/04/27 05:07:29;;;;;;;8.32;3.80;;;2.30;99.90;;;;;;25966905;22;20439;-59
2023/04/27 05:17:31;;;;;;;4.85;2.78;;;2.40;99.90;;;;;;25940451;22;20077;-50
2023/04/27 05:27:32;;;;;;;3.72;2.08;;;2.50;99.90;;;;;;25966175;22;20065;-51
2023/04/27 05:37:34;;;;;;;3.80;2.10;;;2.60;99.90;;;;;;25965542;22;20015;-52
2023/04/27 05:47:36;;;;;;;1.77;0.98;;;3.00;99.90;;;;;;25965542;22;20023;-60
2023/04/27 05:57:38;;;;;;;1.95;0.90;;;3.30;99.90;;;;;;25938556;22;20065;-52
2023/04/27 06:07:42;;;;;;;1.98;0.80;;;3.50;99.90;;;;;;25964203;22;20050;-52
2023/04/27 06:17:44;;;;;;;2.33;0.98;;;3.70;99.90;;;;;;25938201;22;20065;-49
2023/04/27 06:27:46;;;;;;;2.00;0.80;;;3.90;99.90;;;;;;25964808;22;20299;-52
2023/04/27 06:37:47;;;;;;;1.95;0.98;;;5.50;99.90;;;;;;25963511;22;20401;-54
2023/04/27 06:47:49;;;;;;;1.63;1.00;;;9.40;99.90;;;;;;25964501;22;20004;-55
2023/04/27 06:57:51;;;;;;;2.38;1.13;;;11.70;99.90;;;;;;25966217;22;20007;-53
2023/04/27 07:07:52;;;;;;;2.22;1.45;;;12.60;99.90;;;;;;25971587;22;20003;-67
2023/04/27 07:17:54;;;;;;;2.42;1.33;;;12.90;99.50;;;;;;25970764;22;20008;-50
2023/04/27 07:27:58;;;;;;;3.53;1.77;;;13.50;98.80;;;;;;25970577;22;19996;-54
2023/04/27 07:38:03;;;;;;;3.17;2.40;;;14.00;99.10;;;;;;25969096;22;20011;-54
2023/04/27 07:48:05;;;;;;;4.18;2.10;;;14.40;98.30;;;;;;25969774;22;20004;-64
2023/04/27 07:58:06;;;;;;;3.45;1.88;;;14.60;98.10;;;;;;25968229;22;19999;-54
2023/04/27 08:08:08;;;;;;;2.63;1.85;;;14.90;96.60;;;;;;25916042;22;20011;-53
2023/04/27 08:18:10;;;;;;;2.70;1.85;;;14.80;98.20;;;;;;25968534;22;20007;-62
2023/04/27 08:28:12;;;;;;;3.40;1.85;;;14.90;92.80;;;;;;25968223;22;20030;-63
2023/04/27 08:38:14;;;;;;;2.53;1.55;;;14.40;96.60;;;;;;25970510;22;20016;-64
2023/04/27 08:48:16;;;;;;;3.40;1.30;;;14.70;96.60;;;;;;25939705;22;20279;-52
2023/04/27 08:58:17;;;;;;;1.92;1.55;;;14.80;93.20;;;;;;25966223;22;20078;-62
2023/04/27 09:08:19;;;;;;;2.38;1.42;;;14.90;94.90;;;;;;25935923;22;19999;-55
2023/04/27 09:18:22;;;;;;;3.40;1.60;;;15.10;92.50;;;;;;25965088;22;20065;-51
2023/04/27 09:28:28;;;;;;;3.95;1.50;;;15.50;93.30;;;;;;25964549;22;20011;-63
2023/04/27 09:38:30;;;;;;;1.70;1.23;;;15.40;90.90;;;;;;25937444;22;20011;-52
2023/04/27 09:48:31;;;;;;;2.03;1.20;;;15.40;94.10;;;;;;25963391;22;20433;-63
2023/04/27 09:59:06;;;;;;;2.22;1.23;;;15.50;90.50;;;;;;25962467;22;20015;-62
2023/04/27 10:09:09;;;;;;;1.45;0.85;;;15.90;94.90;;;;;;26005472;22;20011;-48
2023/04/27 10:19:10;;;;;;;2.15;1.20;;;15.80;94.50;;;;;;25963165;22;20000;-62
2023/04/27 10:29:15;;;;;;;1.77;0.88;;;15.80;93.10;;;;;;25962178;22;20312;-52
2023/04/27 10:39:21;;;;;;;3.65;1.10;;;16.20;92.00;;;;;;25971221;22;20326;-51
2023/04/27 10:49:23;;;;;;;2.00;1.00;;;16.30;93.30;;;;;;26013601;22;20447;-58
2023/04/27 10:59:25;;;;;;;1.05;0.90;;;16.70;92.50;;;;;;25970932;22;20003;-62
2023/04/27 11:09:26;;;;;;;1.10;0.90;;;16.80;93.70;;;;;;25970610;22;20000;-61
2023/04/27 11:19:29;;;;;;;1.95;1.23;;;16.70;90.30;;;;;;25969927;22;20012;-61
2023/04/27 11:29:38;;;;;;;2.90;0.90;;;16.60;91.50;;;;;;25969396;22;20010;-62
2023/04/27 11:39:40;;;;;;;1.75;1.02;;;16.00;92.70;;;;;;25969147;22;20504;-62
2023/04/27 11:49:47;;;;;;;2.58;1.15;;;16.20;93.70;;;;;;25968468;22;20022;-51
2023/04/27 11:59:48;;;;;;;3.35;1.05;;;16.90;91.50;;;;;;26010966;22;20011;-63
2023/04/27 12:09:50;;;;;;;1.85;1.10;;;17.40;90.20;;;;;;25967247;22;20003;-52
2023/04/27 12:19:51;;;;;;;3.35;1.50;;;16.70;91.00;;;;;;25967863;22;20003;-64
2023/04/27 12:29:53;;;;;;;1.60;1.20;;;16.50;90.50;;;;;;25967367;22;20014;-63
2023/04/27 12:39:55;;;;;;;6.32;2.15;;;16.50;90.20;;;;;;25939736;22;20081;-51
2023/04/27 12:49:56;;;;;;;3.17;2.33;;;15.80;92.40;;;;;;25966301;22;20011;-51
2023/04/27 12:59:58;;;;;;;3.95;2.60;;;15.80;91.80;;;;;;25966434;22;20011;-52
2023/04/27 13:10:00;;;;;;;4.22;2.78;;;16.00;92.60;;;;;;25937818;22;20003;-50
2023/04/27 13:20:01;;;;;;;3.42;2.80;;;15.70;91.50;;;;;;25938728;22;20015;-64
2023/04/27 13:30:04;;;;;;;4.03;3.00;;;15.40;92.70;;;;;;25965138;22;19999;-51
2023/04/27 13:40:08;;;;;;;4.60;3.30;;;15.10;93.70;;;;;;25963905;22;20007;-66
2023/04/27 13:50:10;;;;;;;3.58;3.00;;;16.20;92.80;;;;;;25964251;22;20430;-66
2023/04/27 14:00:14;;;;;;;5.80;3.80;;;16.50;91.90;;;;;;25964203;22;20030;-66
2023/04/27 14:10:16;;;;;;;5.63;3.88;;;16.40;91.90;;;;;;25968902;22;20438;-65
2023/04/27 14:20:18;;;;;;;4.53;3.92;;;16.40;92.00;;;;;;25972498;22;20007;-65
2023/04/27 14:30:19;;;;;;;5.22;4.10;;;16.90;93.20;;;;;;25971990;22;20000;-65
2023/04/27 14:40:21;;;;;;;7.80;4.60;;;17.40;90.90;;;;;;25971583;22;20008;-67
2023/04/27 14:50:22;;;;;;;5.82;4.50;;;17.10;91.90;;;;;;25971863;22;20008;-66
2023/04/27 15:00:24;;;;;;;6.63;4.78;;;16.80;91.90;;;;;;25943725;22;20008;-51
2023/04/27 15:10:26;;;;;;;8.55;5.80;;;16.50;91.40;;;;;;25970968;22;20300;-52
2023/04/27 15:20:28;;;;;;;8.38;5.90;;;16.50;91.10;;;;;;25971436;22;20338;-62
2023/04/27 15:30:30;;;;;;;9.88;7.03;;;15.80;92.30;;;;;;25970014;22;19999;-62
2023/04/27 15:40:32;;;;;;;8.05;5.82;;;15.90;91.40;;;;;;25943386;22;20058;-63
2023/04/27 15:50:34;;;;;;;10.32;6.45;;;15.70;91.80;;;;;;25941830;22;20007;-66
2023/04/27 16:00:36;;;;;;;8.68;6.50;;;15.60;92.60;;;;;;25968644;22;20061;-64
2023/04/27 16:10:37;;;;;;;9.27;6.28;;;15.60;92.80;;;;;;25967395;22;20011;-64
2023/04/27 16:20:39;;;;;;;11.50;6.85;;;14.90;92.30;;;;;;25967956;22;20011;-61
2023/04/27 16:30:41;;;;;;;12.32;7.15;;;13.30;94.50;;;;;;25967304;22;20106;-61
2023/04/27 16:40:43;;;;;;;14.18;7.88;;;11.30;97.20;;;;;;25965711;22;20007;-60
2023/04/27 16:50:45;;;;;;;13.43;7.20;;;10.10;98.60;;;;;;25939387;22;20018;-55
2023/04/27 17:00:47;;;;;;;13.27;6.85;;;9.30;99.90;;;;;;25966049;22;20011;-54
2023/04/27 17:10:49;;;;;;;11.80;6.75;;;8.90;99.90;;;;;;25965802;22;20443;-55
2023/04/27 17:20:51;;;;;;;11.20;6.53;;;8.60;99.90;;;;;;25965583;22;20007;-60
2023/04/27 17:30:53;;;;;;;13.38;7.32;;;8.10;99.90;;;;;;25964854;22;20007;-54
2023/04/27 17:40:55;;;;;;;18.05;7.03;;;7.70;99.90;;;;;;25991235;22;20077;-54
2023/04/27 17:50:57;;;;;;;13.82;7.22;;;7.40;99.90;;;;;;26065215;22;20000;-60
2023/04/27 18:00:58;;;;;;;13.40;6.43;;;7.10;99.90;;;;;;26092340;22;20011;-53
2023/04/27 18:11:00;;;;;;;13.00;7.50;;;6.90;99.90;;;;;;26065157;22;20322;-55
2023/04/27 18:21:01;;;;;;;13.00;7.55;;;6.70;99.90;;;;;;26092185;22;20003;-60
2023/04/27 18:31:03;;;;;;;13.65;7.45;;;6.40;99.90;;;;;;26064273;22;20098;-59
2023/04/27 18:41:06;;;;;;;12.45;7.43;;;6.20;99.90;;;;;;26061915;22;20012;-54
2023/04/27 18:51:08;;;;;;;13.63;7.82;;;6.00;99.90;;;;;;25964251;22;20040;-54
2023/04/27 19:01:28;;;;;;;17.58;8.18;;;5.70;99.90;;;;;;25972232;22;20057;-54
2023/04/27 19:11:30;;;;;;;18.90;9.50;;;5.70;99.90;;;;;;26012028;22;20004;-59
2023/04/27 19:21:32;;;;;;;16.27;8.82;;;5.40;99.90;;;;;;25970079;22;20003;-60
2023/04/27 19:31:33;;;;;;;17.20;8.50;;;5.20;99.90;;;;;;25941707;22;20012;-53
2023/04/27 19:41:35;;;;;;;16.25;8.30;;;5.00;99.90;;;;;;25969990;22;20391;-52
2023/04/27 19:51:39;;;;;;;16.75;9.07;;;4.80;99.90;;;;;;25968945;22;20004;-55
2023/04/27 20:01:41;;;;;;;19.65;9.60;;;4.60;99.90;;;;;;25968068;22;20010;-53
2023/04/27 20:11:42;;;;;;;19.33;8.75;;;4.50;99.90;;;;;;25968034;22;20027;-52
2023/04/27 20:21:44;;;;;;;19.83;9.57;;;4.40;99.90;;;;;;25968259;22;20054;-53
2023/04/27 20:31:47;;;;;;;20.55;10.25;;;4.40;99.90;;;;;;25967272;22;20003;-57
2023/04/27 20:41:49;;;;;;;21.05;10.07;;;4.30;99.90;;;;;;25967573;22;20015;-51
2023/04/27 20:51:51;;;;;;;23.48;10.98;;;4.20;99.90;;;;;;25966757;22;20004;-52
2023/04/27 21:01:52;;;;;;;24.17;11.55;;;4.10;99.90;;;;;;25966194;22;20003;-59
2023/04/27 21:11:54;;;;;;;18.65;10.18;;;4.10;99.90;;;;;;25934363;22;20057;-59
2023/04/27 21:21:56;;;;;;;22.40;12.15;;;4.10;99.90;;;;;;25965009;22;20007;-55
2023/04/27 21:31:57;;;;;;;24.67;12.30;;;3.80;99.90;;;;;;25937722;22;20093;-53
2023/04/27 21:41:59;;;;;;;28.30;13.38;;;3.70;99.90;;;;;;25965062;22;20034;-60
2023/04/27 21:52:01;;;;;;;23.17;11.65;;;3.60;99.90;;;;;;25964914;22;20057;-53
2023/04/27 22:02:05;;;;;;;19.58;10.77;;;3.60;99.90;;;;;;25964727;22;20384;-52
2023/04/27 22:12:06;;;;;;;24.65;12.85;;;3.50;99.90;;;;;;25964636;22;20007;-59
2023/04/27 22:22:09;;;;;;;20.58;12.13;;;3.50;99.90;;;;;;25963965;22;20381;-60
2023/04/27 22:32:10;;;;;;;24.08;11.65;;;3.40;99.90;;;;;;25969104;22;20003;-53
2023/04/27 22:42:12;;;;;;;24.52;12.40;;;3.40;99.90;;;;;;25971521;22;20037;-53
2023/04/27 22:52:15;;;;;;;27.90;12.65;;;3.30;99.90;;;;;;25971277;22;20033;-59
2023/04/27 23:02:16;;;;;;;22.23;12.60;;;3.30;99.90;;;;;;25970689;22;20026;-51
2023/04/27 23:12:19;;;;;;;21.63;11.85;;;3.30;99.90;;;;;;25972186;22;20008;-51
2023/04/27 23:22:21;;;;;;;25.65;13.15;;;3.20;99.90;;;;;;25970073;22;20004;-51
2023/04/27 23:32:22;;;;;;;21.98;12.20;;;3.20;99.90;;;;;;25969988;22;20054;-53
2023/04/27 23:42:24;;;;;;;19.48;10.00;;;3.20;99.90;;;;;;25941390;22;20057;-52
2023/04/27 23:52:25;;;;;;;21.52;11.68;;;3.20;99.90;;;;;;25968910;22;20481;-52
